KGVE/GVE METAR and TAF weather

Enter ICAO airport designator
Station Type Date Time Source
KGVE METAR 2019/02/16 17:15 UTC NOAA

KGVE 161715Z AUTO 05006KT 10SM SCT100 BKN120 05/M08 A2990 RMK AO1 T00481077


Station Type Date Time Source
KGVE Decoded METAR 2019/02/16 17:15 UTC NOAA

Station name not available
Feb 16, 2019 - 12:15 PM EST / 2019.02.16 1715 UTC
Wind: from the NE (050 degrees) at 7 MPH (6 KT):0
Visibility: 10 mile(s):0
Sky conditions: mostly cloudy
Temperature: 40.6 F (4.8 C)
Dew Point: 18.1 F (-7.7 C)
Relative Humidity: 39%
Pressure (altimeter): 29.9 in. Hg (1012 hPa)
ob: KGVE 161715Z AUTO 05006KT 10SM SCT100 BKN120 05/M08 A2990 RMK AO1 T00481077
cycle: 17

Station Type Date Time Source
KGVE TAF UTC NOAA

Error!


Example: see airport list